createdAt,value
2023-04-14T00:00:39.611Z,94.11
2023-04-14T00:03:06.901Z,94.06
2023-04-14T00:05:35.238Z,94.41
2023-04-14T00:08:02.318Z,94.28
2023-04-14T00:10:29.493Z,94.09
2023-04-14T00:12:56.685Z,94.18
2023-04-14T00:15:23.965Z,94.23
2023-04-14T00:17:51.149Z,93.54
2023-04-14T00:20:18.255Z,93.29
2023-04-14T00:22:45.654Z,93.74
2023-04-14T00:25:12.740Z,93.59
2023-04-14T00:27:39.842Z,93.53
2023-04-14T00:30:08.927Z,94.23
2023-04-14T00:32:36.071Z,94.11
2023-04-14T00:35:03.822Z,94.19
2023-04-14T00:37:31.164Z,94.18
2023-04-14T00:39:59.973Z,93.91
2023-04-14T00:42:27.460Z,94.01
2023-04-14T00:44:54.492Z,93.58
2023-04-14T00:47:23.257Z,93.84
2023-04-14T00:49:51.530Z,93.73
2023-04-14T00:52:19.645Z,93.86
2023-04-14T00:54:46.893Z,93.86
2023-04-14T00:57:13.950Z,93.91
2023-04-14T00:59:41.313Z,93.89
2023-04-14T01:02:08.792Z,94.32
2023-04-14T01:04:52.068Z,94.06
2023-04-14T01:07:21.910Z,94.55
2023-04-14T01:09:50.223Z,94.19
2023-04-14T01:12:41.517Z,94.39
2023-04-14T01:15:20.788Z,94.48
2023-04-14T01:17:50.992Z,94.16
2023-04-14T01:20:42.776Z,94.05
2023-04-14T01:23:13.777Z,94.87
2023-04-14T01:26:15.098Z,94.51
2023-04-14T01:29:13.205Z,94.19
2023-04-14T01:31:56.496Z,94.35
2023-04-14T01:34:51.215Z,94.02
2023-04-14T01:37:27.454Z,93.65
2023-04-14T01:39:55.681Z,93.86
2023-04-14T01:42:26.943Z,93.88
2023-04-14T01:44:59.005Z,93.77
2023-04-14T01:47:28.227Z,94.00
2023-04-14T01:49:57.342Z,94.24
2023-04-14T01:52:26.226Z,94.20
2023-04-14T01:54:55.432Z,93.93
2023-04-14T01:57:26.611Z,94.23
2023-04-14T01:59:57.802Z,94.39
2023-04-14T02:02:26.814Z,94.53
2023-04-14T02:04:57.563Z,94.83
2023-04-14T02:07:26.134Z,94.73
2023-04-14T02:09:54.348Z,94.84
2023-04-14T02:12:24.791Z,95.24
2023-04-14T02:14:53.653Z,94.97
2023-04-14T02:17:22.288Z,94.80
2023-04-14T02:19:50.385Z,94.74
2023-04-14T02:22:18.983Z,94.94
2023-04-14T02:24:47.872Z,94.87
2023-04-14T02:27:21.551Z,94.91
2023-04-14T02:29:55.110Z,95.08
2023-04-14T02:32:26.051Z,95.10
2023-04-14T02:35:01.146Z,94.94
2023-04-14T02:37:36.235Z,94.71
2023-04-14T02:40:36.180Z,94.44
2023-04-14T02:43:10.724Z,94.47
2023-04-14T02:45:40.790Z,94.37
2023-04-14T02:48:12.691Z,94.27
2023-04-14T02:50:45.852Z,94.31
2023-04-14T02:53:20.524Z,94.43
2023-04-14T02:55:49.841Z,94.03
2023-04-14T02:58:19.735Z,94.27
2023-04-14T03:00:47.908Z,94.29
2023-04-14T03:03:17.233Z,93.94
2023-04-14T03:05:47.270Z,94.35
2023-04-14T03:08:16.972Z,94.16
2023-04-14T03:10:49.016Z,94.32
2023-04-14T03:13:22.059Z,94.14
2023-04-14T03:15:50.424Z,94.69
2023-04-14T03:18:19.075Z,94.32
2023-04-14T03:20:47.402Z,94.18
2023-04-14T03:23:19.141Z,94.01
2023-04-14T03:25:55.430Z,93.91
2023-04-14T03:28:30.607Z,93.96
2023-04-14T03:31:01.570Z,94.15
2023-04-14T03:33:36.373Z,93.72
2023-04-14T03:36:04.907Z,93.89
2023-04-14T03:38:34.875Z,93.84
2023-04-14T03:41:06.464Z,93.90
2023-04-14T03:43:34.163Z,94.15
2023-04-14T03:46:07.546Z,94.61
2023-04-14T03:48:42.807Z,95.19
2023-04-14T03:51:14.234Z,95.45
2023-04-14T03:53:45.157Z,96.11
2023-04-14T03:56:14.271Z,96.47
2023-04-14T03:58:47.422Z,96.89
2023-04-14T04:01:18.141Z,96.68
2023-04-14T04:03:46.853Z,96.70
2023-04-14T04:06:16.026Z,96.61
2023-04-14T04:08:44.822Z,96.59
2023-04-14T04:11:13.483Z,96.47
2023-04-14T04:13:42.596Z,96.61
2023-04-14T04:16:12.318Z,96.62
2023-04-14T04:18:40.905Z,96.50
2023-04-14T04:21:10.904Z,96.30
2023-04-14T04:23:42.037Z,96.16
2023-04-14T04:26:09.772Z,95.74
2023-04-14T04:28:39.090Z,95.99
2023-04-14T04:31:07.089Z,95.75
2023-04-14T04:33:34.846Z,95.53
2023-04-14T04:36:05.691Z,95.60
2023-04-14T04:38:38.373Z,95.51
2023-04-14T04:41:05.609Z,95.43
2023-04-14T04:43:32.745Z,95.56
2023-04-14T04:46:11.707Z,95.60
2023-04-14T04:48:39.049Z,95.45
2023-04-14T04:51:06.282Z,95.48
2023-04-14T04:53:33.464Z,95.20
2023-04-14T04:56:00.537Z,95.37
2023-04-14T04:58:27.620Z,95.07
2023-04-14T05:00:54.934Z,95.00
2023-04-14T05:03:22.204Z,95.24
2023-04-14T05:05:49.373Z,94.92
2023-04-14T05:08:16.526Z,95.50
2023-04-14T05:10:44.702Z,95.09
2023-04-14T05:13:11.764Z,94.86
2023-04-14T05:15:38.923Z,94.75
2023-04-14T05:18:06.152Z,94.84
2023-04-14T05:20:34.897Z,94.79
2023-04-14T05:23:02.395Z,95.07
2023-04-14T05:25:29.542Z,95.14
2023-04-14T05:27:56.620Z,94.88
2023-04-14T05:30:24.005Z,95.14
2023-04-14T05:32:51.645Z,95.01
2023-04-14T05:35:18.745Z,95.48
2023-04-14T05:37:45.878Z,95.32
2023-04-14T05:40:13.390Z,95.79
2023-04-14T05:42:42.070Z,95.37
2023-04-14T05:45:09.976Z,95.31
2023-04-14T05:47:37.450Z,95.72
2023-04-14T05:50:05.053Z,95.44
2023-04-14T05:52:32.169Z,95.82
2023-04-14T05:54:59.231Z,95.51
2023-04-14T05:57:26.420Z,96.07
2023-04-14T05:59:53.475Z,96.04
2023-04-14T06:02:20.519Z,96.36
2023-04-14T06:04:47.972Z,96.21
2023-04-14T06:07:15.401Z,96.46
2023-04-14T06:09:46.744Z,96.44
2023-04-14T06:12:14.447Z,96.41
2023-04-14T06:14:41.510Z,96.67
2023-04-14T06:17:08.997Z,96.55
2023-04-14T06:19:36.062Z,96.68
2023-04-14T06:22:03.154Z,96.45
2023-04-14T06:24:30.325Z,96.49
2023-04-14T06:26:58.709Z,96.34
2023-04-14T06:29:25.965Z,96.46
2023-04-14T06:31:55.134Z,96.43
2023-04-14T06:34:22.246Z,96.62
2023-04-14T06:36:49.480Z,96.29
2023-04-14T06:39:16.651Z,96.40
2023-04-14T06:41:44.195Z,96.34
2023-04-14T06:44:13.434Z,96.54
2023-04-14T06:46:40.595Z,96.25
2023-04-14T06:49:07.906Z,96.20
2023-04-14T06:51:35.544Z,96.11
2023-04-14T06:54:03.046Z,96.15
2023-04-14T06:56:30.546Z,96.07
2023-04-14T06:58:57.568Z,96.09
2023-04-14T07:01:24.600Z,96.44
2023-04-14T07:03:51.791Z,96.09
2023-04-14T07:06:18.898Z,96.17
2023-04-14T07:08:46.739Z,95.92
2023-04-14T07:11:13.896Z,95.78
2023-04-14T07:13:41.725Z,96.03
2023-04-14T07:16:09.022Z,95.62
2023-04-14T07:18:36.488Z,95.12
2023-04-14T07:21:03.748Z,95.60
2023-04-14T07:23:31.228Z,95.75
2023-04-14T07:25:59.596Z,96.10
2023-04-14T07:28:28.382Z,95.26
2023-04-14T07:30:55.634Z,95.72
2023-04-14T07:33:22.854Z,95.12
2023-04-14T07:36:00.712Z,95.33
2023-04-14T07:38:29.773Z,95.16
2023-04-14T07:40:56.978Z,94.07
2023-04-14T07:43:24.196Z,94.51
2023-04-14T07:45:53.358Z,94.71
2023-04-14T07:48:21.834Z,94.46
2023-04-14T07:50:51.644Z,94.21
2023-04-14T07:53:18.713Z,93.14
2023-04-14T07:55:45.968Z,93.24
2023-04-14T07:58:15.740Z,93.00
2023-04-14T08:00:43.571Z,92.40
2023-04-14T08:03:10.933Z,91.83
2023-04-14T08:05:38.263Z,91.03
2023-04-14T08:08:05.728Z,90.92
2023-04-14T08:10:32.883Z,90.83
2023-04-14T08:13:01.579Z,89.84
2023-04-14T08:15:32.417Z,89.36
2023-04-14T08:17:59.747Z,89.12
2023-04-14T08:20:27.141Z,89.28
2023-04-14T08:22:55.503Z,88.14
2023-04-14T08:25:22.652Z,87.77
2023-04-14T08:27:49.761Z,87.81
2023-04-14T08:30:16.956Z,87.25
2023-04-14T08:32:44.176Z,86.78
2023-04-14T08:35:39.536Z,86.15
2023-04-14T08:38:01.454Z,85.35
2023-04-14T08:40:38.566Z,84.81
2023-04-14T08:43:06.778Z,83.86
2023-04-14T08:45:34.674Z,82.23
2023-04-14T08:48:06.175Z,82.31
2023-04-14T08:50:38.177Z,81.16
2023-04-14T08:53:09.660Z,77.83
2023-04-14T08:55:43.516Z,75.46
2023-04-14T08:58:11.401Z,73.50
2023-04-14T09:00:40.432Z,73.37
2023-04-14T09:03:09.407Z,73.31
2023-04-14T09:05:37.542Z,72.86
2023-04-14T09:08:05.007Z,71.40
2023-04-14T09:10:32.713Z,71.79
2023-04-14T09:13:01.608Z,71.37
2023-04-14T09:15:29.426Z,70.86
2023-04-14T09:17:56.893Z,69.86
2023-04-14T09:20:34.707Z,68.62
2023-04-14T09:23:09.747Z,68.43
2023-04-14T09:25:39.153Z,64.59
2023-04-14T09:28:06.431Z,64.47
2023-04-14T09:30:33.803Z,63.11
2023-04-14T09:33:07.859Z,62.63
2023-04-14T09:35:50.966Z,60.85
2023-04-14T09:38:37.872Z,61.43
2023-04-14T09:41:08.518Z,61.33
2023-04-14T09:43:37.003Z,61.10
2023-04-14T09:46:10.976Z,61.88
2023-04-14T09:48:57.916Z,59.98
2023-04-14T09:51:29.760Z,59.44
2023-04-14T09:54:06.345Z,58.18
2023-04-14T09:56:33.866Z,57.87
2023-04-14T09:59:02.835Z,58.55
2023-04-14T10:01:34.470Z,57.38
2023-04-14T10:04:03.100Z,57.09
2023-04-14T10:06:32.487Z,56.40
2023-04-14T10:09:00.891Z,55.47
2023-04-14T10:11:30.677Z,54.43
2023-04-14T10:14:03.121Z,51.41
2023-04-14T10:16:30.320Z,49.78
2023-04-14T10:19:00.938Z,51.86
2023-04-14T10:21:28.441Z,52.10
2023-04-14T10:23:57.401Z,51.95
2023-04-14T10:26:24.558Z,50.83
2023-04-14T10:28:54.086Z,52.01
2023-04-14T10:31:25.481Z,52.13
2023-04-14T10:33:54.405Z,50.93
2023-04-14T10:36:29.352Z,51.54
2023-04-14T10:39:02.437Z,52.03
2023-04-14T10:41:48.638Z,52.79
2023-04-14T10:44:26.712Z,52.36
2023-04-14T10:46:56.690Z,52.00
2023-04-14T10:49:49.611Z,52.70
2023-04-14T10:52:17.041Z,54.35
2023-04-14T10:55:01.478Z,54.83
2023-04-14T10:57:29.956Z,53.00
2023-04-14T10:59:59.235Z,52.75
2023-04-14T11:02:31.158Z,52.81
2023-04-14T11:05:04.240Z,52.82
2023-04-14T11:07:38.709Z,50.27
2023-04-14T11:10:18.056Z,51.45
2023-04-14T11:12:46.561Z,50.74
2023-04-14T11:15:14.713Z,50.41
2023-04-14T11:17:46.137Z,50.44
2023-04-14T11:20:18.352Z,49.08
2023-04-14T11:22:47.049Z,48.38
2023-04-14T11:25:16.498Z,47.71
2023-04-14T11:27:44.882Z,47.19
2023-04-14T11:30:18.021Z,47.91
2023-04-14T11:32:59.814Z,48.06
2023-04-14T11:35:28.616Z,49.12
2023-04-14T11:38:00.237Z,47.54
2023-04-14T11:40:28.075Z,47.79
2023-04-14T11:42:59.210Z,46.47
2023-04-14T11:45:30.522Z,46.84
2023-04-14T11:48:06.124Z,46.96
2023-04-14T11:50:39.133Z,46.28
2023-04-14T11:53:10.498Z,46.46
2023-04-14T11:55:38.003Z,45.40
2023-04-14T11:58:05.131Z,45.14
2023-04-14T12:00:32.316Z,46.14
2023-04-14T12:03:03.026Z,46.23
2023-04-14T12:05:31.965Z,46.41
2023-04-14T12:08:08.804Z,46.04
2023-04-14T12:10:41.354Z,45.97
2023-04-14T12:13:12.193Z,45.92
2023-04-14T12:15:42.015Z,46.22
2023-04-14T12:18:11.769Z,46.38
2023-04-14T12:20:43.221Z,46.80
2023-04-14T12:23:10.434Z,46.70
2023-04-14T12:25:37.647Z,47.55
2023-04-14T12:28:07.599Z,46.70
2023-04-14T12:30:36.304Z,47.24
2023-04-14T12:33:13.525Z,47.88
2023-04-14T12:35:41.052Z,47.79
2023-04-14T12:38:15.064Z,46.22
2023-04-14T12:40:46.139Z,46.58
2023-04-14T12:43:14.588Z,48.10
2023-04-14T12:45:46.828Z,49.52
2023-04-14T12:48:16.142Z,50.05
2023-04-14T12:50:43.871Z,50.42
2023-04-14T12:53:28.737Z,50.52
2023-04-14T12:56:16.703Z,50.90
2023-04-14T12:58:48.746Z,51.30
2023-04-14T13:01:18.549Z,51.14
2023-04-14T13:03:56.054Z,51.99
2023-04-14T13:06:25.017Z,50.99
2023-04-14T13:08:53.820Z,51.38
2023-04-14T13:11:22.525Z,51.15
2023-04-14T13:13:50.402Z,51.95
2023-04-14T13:16:19.061Z,51.14
2023-04-14T13:18:48.172Z,50.79
2023-04-14T13:21:16.119Z,51.23
2023-04-14T13:23:43.407Z,50.55
2023-04-14T13:26:11.058Z,49.98
2023-04-14T13:28:38.456Z,50.35
2023-04-14T13:31:05.735Z,48.38
2023-04-14T13:33:33.366Z,49.28
2023-04-14T13:36:02.632Z,48.87
2023-04-14T13:38:30.220Z,48.92
2023-04-14T13:40:57.310Z,48.52
2023-04-14T13:43:24.979Z,48.34
2023-04-14T13:45:53.007Z,49.08
2023-04-14T13:48:20.191Z,49.09
2023-04-14T13:50:47.728Z,48.43
2023-04-14T13:53:14.868Z,48.55
2023-04-14T13:55:42.200Z,49.49
2023-04-14T13:58:09.784Z,49.88
2023-04-14T14:00:37.147Z,50.24
2023-04-14T14:03:04.412Z,50.17
2023-04-14T14:05:31.797Z,50.47
2023-04-14T14:07:59.095Z,50.02
2023-04-14T14:10:26.311Z,49.64
2023-04-14T14:12:54.197Z,50.36
2023-04-14T14:15:21.295Z,49.38
2023-04-14T14:17:48.757Z,50.67
2023-04-14T14:20:16.033Z,51.53
2023-04-14T14:22:43.174Z,51.66
2023-04-14T14:25:18.457Z,51.59
2023-04-14T14:27:47.926Z,51.33
2023-04-14T14:30:15.084Z,51.17
2023-04-14T14:32:42.355Z,50.79
2023-04-14T14:35:09.814Z,50.41
2023-04-14T14:37:36.965Z,50.22
2023-04-14T14:40:04.453Z,50.67
2023-04-14T14:42:31.751Z,51.09
2023-04-14T14:45:01.014Z,52.01
2023-04-14T14:47:28.707Z,51.78
2023-04-14T14:50:02.332Z,51.78
2023-04-14T14:52:32.336Z,52.10
2023-04-14T14:54:59.661Z,52.01
2023-04-14T14:57:27.465Z,52.17
2023-04-14T14:59:54.711Z,52.54
2023-04-14T15:02:22.670Z,51.35
2023-04-14T15:04:50.278Z,51.70
2023-04-14T15:07:18.233Z,51.54
2023-04-14T15:09:49.864Z,51.54
2023-04-14T15:12:17.838Z,51.43
2023-04-14T15:14:45.150Z,50.80
2023-04-14T15:17:12.324Z,51.14
2023-04-14T15:19:39.578Z,51.33
2023-04-14T15:22:08.051Z,51.48
2023-04-14T15:24:35.489Z,51.64
2023-04-14T15:27:02.887Z,51.62
2023-04-14T15:29:30.760Z,51.82
2023-04-14T15:31:57.916Z,51.79
2023-04-14T15:34:25.485Z,52.35
2023-04-14T15:36:52.629Z,51.74
2023-04-14T15:39:19.721Z,52.24
2023-04-14T15:41:47.783Z,51.80
2023-04-14T15:44:14.911Z,52.06
2023-04-14T15:46:42.004Z,52.30
2023-04-14T15:49:09.154Z,52.37
2023-04-14T15:51:36.992Z,52.82
2023-04-14T15:54:04.618Z,52.65
2023-04-14T15:56:32.041Z,53.16
2023-04-14T15:58:59.109Z,53.52
2023-04-14T16:01:26.376Z,53.55
2023-04-14T16:03:53.611Z,53.87
2023-04-14T16:06:20.777Z,53.68
2023-04-14T16:08:47.908Z,53.82
2023-04-14T16:11:16.660Z,54.10
2023-04-14T16:13:44.729Z,53.80
2023-04-14T16:16:13.805Z,54.19
2023-04-14T16:18:40.993Z,54.10
2023-04-14T16:21:08.290Z,54.38
2023-04-14T16:23:35.956Z,54.56
2023-04-14T16:26:03.117Z,54.69
2023-04-14T16:28:30.228Z,54.91
2023-04-14T16:31:01.824Z,55.15
2023-04-14T16:33:29.469Z,55.24
2023-04-14T16:36:00.066Z,55.45
2023-04-14T16:38:27.329Z,55.21
2023-04-14T16:40:58.761Z,55.61
2023-04-14T16:43:27.307Z,55.65
2023-04-14T16:46:02.148Z,55.27
2023-04-14T16:48:29.775Z,55.21
2023-04-14T16:50:57.699Z,55.88
2023-04-14T16:53:24.836Z,55.66
2023-04-14T16:55:51.983Z,55.47
2023-04-14T16:58:19.168Z,55.52
2023-04-14T17:00:46.517Z,55.99
2023-04-14T17:03:13.906Z,56.09
2023-04-14T17:05:41.155Z,55.95
2023-04-14T17:08:08.231Z,56.42
2023-04-14T17:10:35.371Z,56.87
2023-04-14T17:13:02.585Z,56.77
2023-04-14T17:15:29.751Z,57.31
2023-04-14T17:17:56.932Z,57.75
2023-04-14T17:20:24.086Z,57.93
2023-04-14T17:22:53.360Z,58.24
2023-04-14T17:25:21.262Z,58.13
2023-04-14T17:27:48.536Z,58.27
2023-04-14T17:30:15.612Z,58.65
2023-04-14T17:32:43.396Z,58.87
2023-04-14T17:35:11.106Z,59.00
2023-04-14T17:37:38.299Z,59.17
2023-04-14T17:40:06.699Z,59.43
2023-04-14T17:42:34.543Z,59.59
2023-04-14T17:45:01.826Z,60.08
2023-04-14T17:47:29.560Z,60.71
2023-04-14T17:49:56.644Z,61.69
2023-04-14T17:52:23.823Z,61.85
2023-04-14T17:54:51.833Z,62.40
2023-04-14T17:57:19.054Z,62.77
2023-04-14T17:59:46.276Z,62.80
2023-04-14T18:02:16.525Z,63.43
2023-04-14T18:04:43.970Z,63.66
2023-04-14T18:07:11.221Z,64.00
2023-04-14T18:09:38.382Z,64.24
2023-04-14T18:12:06.181Z,64.37
2023-04-14T18:14:33.499Z,64.75
2023-04-14T18:17:00.624Z,64.96
2023-04-14T18:19:28.490Z,65.54
2023-04-14T18:21:57.028Z,65.81
2023-04-14T18:26:54.992Z,66.27
2023-04-14T18:29:22.100Z,66.54
2023-04-14T18:31:49.899Z,66.53
2023-04-14T18:34:17.207Z,66.94
2023-04-14T18:36:44.374Z,67.08
2023-04-14T18:39:11.476Z,67.25
2023-04-14T18:41:38.784Z,67.21
2023-04-14T18:44:06.802Z,67.50
2023-04-14T18:46:33.935Z,67.11
2023-04-14T18:49:01.652Z,67.46
2023-04-14T18:51:28.948Z,67.06
2023-04-14T18:53:56.006Z,67.33
2023-04-14T18:56:23.104Z,67.49
2023-04-14T18:58:51.579Z,67.42
2023-04-14T19:01:19.329Z,67.50
2023-04-14T19:03:47.374Z,67.23
2023-04-14T19:06:14.838Z,67.92
2023-04-14T19:08:41.913Z,68.12
2023-04-14T19:11:10.013Z,68.31
2023-04-14T19:13:38.801Z,68.09
2023-04-14T19:16:08.609Z,68.41
2023-04-14T19:18:36.413Z,68.70
2023-04-14T19:21:03.628Z,68.86
2023-04-14T19:23:30.885Z,69.10
2023-04-14T19:25:58.145Z,69.48
2023-04-14T19:28:26.207Z,69.91
2023-04-14T19:30:53.414Z,70.09
2023-04-14T19:33:21.151Z,70.24
2023-04-14T19:35:49.289Z,70.71
2023-04-14T19:38:16.489Z,70.86
2023-04-14T19:40:50.141Z,71.49
2023-04-14T19:43:18.442Z,71.17
2023-04-14T19:45:52.497Z,71.68
2023-04-14T19:48:23.855Z,71.39
2023-04-14T19:50:55.464Z,72.05
2023-04-14T19:53:23.436Z,72.26
2023-04-14T19:55:57.109Z,72.87
2023-04-14T19:58:26.305Z,72.60
2023-04-14T20:00:58.205Z,72.67
2023-04-14T20:03:26.743Z,73.24
2023-04-14T20:05:56.215Z,73.63
2023-04-14T20:08:25.270Z,73.23
2023-04-14T20:10:54.362Z,72.98
2023-04-14T20:13:23.458Z,73.58
2023-04-14T20:15:54.199Z,72.64
2023-04-14T20:18:23.021Z,72.50
2023-04-14T20:20:50.566Z,72.16
2023-04-14T20:23:17.657Z,72.34
2023-04-14T20:25:45.870Z,71.93
2023-04-14T20:28:14.119Z,71.65
2023-04-14T20:30:43.000Z,71.66
2023-04-14T20:33:10.774Z,71.78
2023-04-14T20:35:39.859Z,71.94
2023-04-14T20:38:07.747Z,71.43
2023-04-14T20:40:35.517Z,71.69
2023-04-14T20:43:02.705Z,71.37
2023-04-14T20:45:30.214Z,71.59
2023-04-14T20:47:57.486Z,71.74
2023-04-14T20:50:24.834Z,71.86
2023-04-14T20:52:51.896Z,71.45
2023-04-14T20:55:19.728Z,71.99
2023-04-14T20:57:48.185Z,72.64
2023-04-14T21:00:16.996Z,72.79
2023-04-14T21:02:45.118Z,72.83
2023-04-14T21:05:12.941Z,73.19
2023-04-14T21:07:40.212Z,72.92
2023-04-14T21:10:09.820Z,73.46
2023-04-14T21:12:54.258Z,73.33
2023-04-14T21:15:50.274Z,74.27
2023-04-14T21:18:12.291Z,73.99
2023-04-14T21:20:40.040Z,74.13
2023-04-14T21:23:07.524Z,73.95
2023-04-14T21:25:35.502Z,73.96
2023-04-14T21:28:03.751Z,74.03
2023-04-14T21:30:31.779Z,74.08
2023-04-14T21:32:59.456Z,74.20
2023-04-14T21:35:26.543Z,74.48
2023-04-14T21:37:53.735Z,74.51
2023-04-14T21:40:21.695Z,74.37
2023-04-14T21:42:48.927Z,74.48
2023-04-14T21:45:16.181Z,74.60
2023-04-14T21:47:43.366Z,74.67
2023-04-14T21:50:10.921Z,74.45
2023-04-14T21:52:38.072Z,74.28
2023-04-14T21:55:05.662Z,74.86
2023-04-14T21:57:48.464Z,75.07
2023-04-14T22:00:20.539Z,75.05
2023-04-14T22:02:48.304Z,74.95
2023-04-14T22:05:15.960Z,75.32
2023-04-14T22:07:43.074Z,75.28
2023-04-14T22:10:10.401Z,75.33
2023-04-14T22:12:39.940Z,75.60
2023-04-14T22:15:08.893Z,75.02
2023-04-14T22:17:37.719Z,75.34
2023-04-14T22:20:06.576Z,75.69
2023-04-14T22:22:34.826Z,75.48
2023-04-14T22:25:05.861Z,75.24
2023-04-14T22:27:34.112Z,76.39
2023-04-14T22:30:02.232Z,75.88
2023-04-14T22:32:29.398Z,75.36
2023-04-14T22:34:56.562Z,76.08
2023-04-14T22:37:23.691Z,76.26
2023-04-14T22:39:51.872Z,76.21
2023-04-14T22:42:19.032Z,76.37
2023-04-14T22:44:48.270Z,76.25
2023-04-14T22:47:15.686Z,76.42
2023-04-14T22:49:42.763Z,76.29
2023-04-14T22:52:09.804Z,76.01
2023-04-14T22:54:36.831Z,76.40
2023-04-14T22:57:04.416Z,76.48
2023-04-14T22:59:32.274Z,76.17
2023-04-14T23:01:59.450Z,76.24
2023-04-14T23:04:26.994Z,76.42
2023-04-14T23:06:54.236Z,76.68
2023-04-14T23:09:21.370Z,76.52
2023-04-14T23:11:48.763Z,76.30
2023-04-14T23:14:15.958Z,76.80
2023-04-14T23:16:43.982Z,76.77
2023-04-14T23:19:11.142Z,77.16
2023-04-14T23:21:39.018Z,77.31
2023-04-14T23:24:06.952Z,77.43
2023-04-14T23:26:34.318Z,77.41
2023-04-14T23:29:01.834Z,76.97
2023-04-14T23:31:29.223Z,77.20
2023-04-14T23:33:56.499Z,77.73
2023-04-14T23:36:24.366Z,77.53
2023-04-14T23:38:51.472Z,77.54
2023-04-14T23:41:19.132Z,77.61
2023-04-14T23:43:46.949Z,77.86
2023-04-14T23:46:14.048Z,77.58
2023-04-14T23:48:41.359Z,78.01
2023-04-14T23:51:18.181Z,78.08
2023-04-14T23:53:46.739Z,77.95
2023-04-14T23:56:13.776Z,78.04
2023-04-14T23:58:40.875Z,77.95
